createdAt,value
2022-09-15T00:02:22.086Z,38.13
2022-09-15T00:07:28.068Z,40.45
2022-09-15T00:12:34.195Z,38.42
2022-09-15T00:17:39.617Z,38.55
2022-09-15T00:27:51.354Z,40.08
2022-09-15T00:32:57.521Z,36.80
2022-09-15T00:38:03.351Z,40.30
2022-09-15T00:43:12.758Z,37.28
2022-09-15T00:48:23.287Z,39.58
2022-09-15T00:53:29.652Z,41.20
2022-09-15T00:58:45.787Z,43.30
2022-09-15T01:03:51.365Z,40.80
2022-09-15T01:09:15.454Z,41.97
2022-09-15T01:14:21.591Z,40.47
2022-09-15T01:19:53.790Z,39.28
2022-09-15T01:25:17.307Z,44.45
2022-09-15T01:30:24.611Z,43.00
2022-09-15T01:35:53.895Z,44.00
2022-09-15T01:41:14.287Z,43.50
2022-09-15T01:46:25.581Z,38.53
2022-09-15T01:51:33.431Z,45.20
2022-09-15T01:56:41.608Z,44.55
2022-09-15T02:02:00.478Z,37.67
2022-09-15T02:07:16.265Z,40.28
2022-09-15T02:12:52.877Z,44.47
2022-09-15T02:18:00.935Z,41.08
2022-09-15T02:23:23.330Z,42.97
2022-09-15T02:28:36.012Z,42.30
2022-09-15T02:34:01.230Z,40.83
2022-09-15T02:39:13.461Z,45.93
2022-09-15T02:44:19.301Z,41.45
2022-09-15T02:49:24.952Z,49.35
2022-09-15T02:54:31.067Z,43.85
2022-09-15T02:59:54.744Z,46.53
2022-09-15T03:05:00.533Z,44.28
2022-09-15T03:10:07.420Z,39.70
2022-09-15T03:15:14.980Z,40.65
2022-09-15T03:20:24.322Z,39.45
2022-09-15T03:25:31.453Z,37.60
2022-09-15T03:30:37.603Z,35.55
2022-09-15T03:35:43.661Z,35.47
2022-09-15T03:41:03.413Z,33.63
2022-09-15T03:46:10.799Z,35.80
2022-09-15T03:51:16.785Z,34.08
2022-09-15T03:56:33.019Z,33.70
2022-09-15T04:01:38.745Z,34.45
2022-09-15T04:06:44.660Z,33.65
2022-09-15T04:11:51.744Z,31.38
2022-09-15T04:16:57.617Z,29.67
2022-09-15T04:22:03.380Z,32.92
2022-09-15T04:27:08.946Z,28.35
2022-09-15T04:32:14.723Z,30.83
2022-09-15T04:37:20.632Z,25.77
2022-09-15T04:42:26.447Z,27.88
2022-09-15T04:47:32.640Z,28.48
2022-09-15T04:52:38.594Z,29.30
2022-09-15T04:57:44.705Z,27.90
2022-09-15T05:02:50.731Z,25.70
2022-09-15T05:08:04.381Z,29.85
2022-09-15T05:13:10.430Z,27.38
2022-09-15T05:18:15.976Z,28.50
2022-09-15T05:23:23.575Z,25.45
2022-09-15T05:28:32.035Z,27.27
2022-09-15T05:33:37.946Z,30.08
2022-09-15T05:38:44.213Z,26.83
2022-09-15T05:43:51.005Z,29.63
2022-09-15T05:48:58.287Z,27.40
2022-09-15T05:54:04.062Z,28.38
2022-09-15T05:59:09.617Z,27.52
2022-09-15T06:04:14.789Z,26.70
2022-09-15T06:09:20.511Z,25.05
2022-09-15T06:14:26.889Z,24.55
2022-09-15T06:19:35.061Z,25.90
2022-09-15T06:24:40.415Z,26.38
2022-09-15T06:34:56.896Z,23.08
2022-09-15T06:40:09.428Z,24.98
2022-09-15T06:45:18.641Z,25.58
2022-09-15T06:50:24.104Z,28.60
2022-09-15T06:55:30.793Z,25.75
2022-09-15T07:00:36.297Z,26.58
2022-09-15T07:05:42.375Z,27.25
2022-09-15T07:10:48.469Z,26.60
2022-09-15T07:16:02.898Z,27.25
2022-09-15T07:21:11.208Z,28.05
2022-09-15T07:26:28.568Z,28.08
2022-09-15T07:31:37.419Z,27.75
2022-09-15T07:36:55.505Z,28.52
2022-09-15T07:42:01.698Z,28.52
2022-09-15T07:47:06.916Z,29.70
2022-09-15T07:52:15.193Z,26.60
2022-09-15T07:57:20.577Z,30.27
2022-09-15T08:02:26.192Z,28.13
2022-09-15T08:07:32.087Z,30.90
2022-09-15T08:12:37.741Z,31.15
2022-09-15T08:17:43.237Z,28.35
2022-09-15T08:22:49.577Z,30.40
2022-09-15T08:27:59.984Z,29.17
2022-09-15T08:33:05.505Z,29.08
2022-09-15T08:38:13.256Z,28.90
2022-09-15T08:43:25.599Z,26.85
2022-09-15T08:48:38.247Z,25.08
2022-09-15T08:53:48.676Z,22.85
2022-09-15T08:58:54.210Z,23.70
2022-09-15T09:04:23.736Z,24.95
2022-09-15T09:09:29.455Z,24.45
2022-09-15T09:14:40.922Z,23.42
2022-09-15T09:20:20.308Z,8.80
2022-09-15T09:25:28.016Z,15.13
2022-09-15T09:30:37.985Z,15.27
2022-09-15T09:35:55.819Z,16.70
2022-09-15T09:41:02.528Z,16.10
2022-09-15T09:46:19.669Z,14.18
2022-09-15T09:51:35.845Z,14.95
2022-09-15T09:56:43.285Z,17.05
2022-09-15T10:02:08.885Z,21.92
2022-09-15T10:07:15.470Z,22.70
2022-09-15T10:12:32.176Z,11.77
2022-09-15T10:17:45.967Z,18.05
2022-09-15T10:22:51.878Z,22.58
2022-09-15T10:28:25.461Z,17.75
2022-09-15T10:33:34.004Z,17.05
2022-09-15T10:38:50.900Z,23.55
2022-09-15T10:43:59.807Z,17.33
2022-09-15T10:49:36.052Z,26.50
2022-09-15T10:55:11.676Z,28.60
2022-09-15T11:00:24.562Z,28.13
2022-09-15T11:06:11.805Z,12.55
2022-09-15T11:11:19.886Z,16.48
2022-09-15T11:16:48.665Z,13.50
2022-09-15T11:22:27.478Z,17.27
2022-09-15T11:28:18.412Z,14.27
2022-09-15T11:34:00.778Z,14.88
2022-09-15T11:39:31.218Z,13.10
2022-09-15T11:44:43.567Z,13.38
2022-09-15T11:50:28.194Z,11.27
2022-09-15T11:55:41.128Z,16.83
2022-09-15T12:01:01.722Z,16.27
2022-09-15T12:06:45.372Z,14.82
2022-09-15T12:11:58.344Z,10.13
2022-09-15T12:17:06.181Z,16.42
2022-09-15T12:22:21.297Z,13.02
2022-09-15T12:27:26.751Z,18.90
2022-09-15T12:32:36.494Z,20.95
2022-09-15T12:38:03.856Z,20.10
2022-09-15T12:43:15.293Z,23.27
2022-09-15T12:48:29.694Z,22.60
2022-09-15T12:53:40.192Z,22.75
2022-09-15T12:58:52.431Z,8.07
2022-09-15T13:04:02.459Z,24.65
2022-09-15T13:09:08.142Z,9.65
2022-09-15T13:14:26.448Z,24.38
2022-09-15T13:19:37.645Z,26.45
2022-09-15T13:25:06.857Z,24.55
2022-09-15T13:30:42.538Z,24.80
2022-09-15T13:35:54.481Z,25.77
2022-09-15T13:41:27.395Z,30.33
2022-09-15T13:46:57.973Z,25.10
2022-09-15T13:52:23.728Z,29.17
2022-09-15T14:03:11.250Z,25.15
2022-09-15T14:08:23.031Z,26.60
2022-09-15T14:13:31.271Z,25.67
2022-09-15T14:18:46.609Z,17.17
2022-09-15T14:23:57.143Z,16.42
2022-09-15T14:29:08.480Z,21.40
2022-09-15T14:34:26.723Z,27.20
2022-09-15T14:39:33.102Z,20.65
2022-09-15T14:50:11.215Z,26.67
2022-09-15T14:55:29.716Z,28.27
2022-09-15T15:01:18.615Z,16.83
2022-09-15T15:06:39.772Z,26.88
2022-09-15T15:11:45.472Z,24.33
2022-09-15T15:16:59.615Z,22.67
2022-09-15T15:22:25.996Z,30.35
2022-09-15T15:27:37.626Z,29.33
2022-09-15T15:32:45.357Z,27.60
2022-09-15T15:37:51.610Z,30.20
2022-09-15T15:43:02.458Z,29.90
2022-09-15T15:48:10.422Z,26.02
2022-09-15T15:53:15.847Z,27.98
2022-09-15T15:58:23.568Z,29.42
2022-09-15T16:03:29.075Z,28.02
2022-09-15T16:08:41.523Z,27.25
2022-09-15T16:13:46.942Z,19.70
2022-09-15T16:23:57.378Z,26.83
2022-09-15T16:29:02.508Z,30.85
2022-09-15T16:34:07.839Z,27.48
2022-09-15T16:44:21.964Z,32.38
2022-09-15T16:49:27.465Z,32.78
2022-09-15T16:54:32.790Z,31.23
2022-09-15T17:04:42.891Z,30.48
2022-09-15T17:14:53.713Z,30.27
2022-09-15T17:19:59.343Z,32.78
2022-09-15T17:25:06.862Z,34.22
2022-09-15T17:30:12.609Z,33.55
2022-09-15T17:35:27.562Z,34.22
2022-09-15T17:40:33.772Z,34.07
2022-09-15T17:45:39.359Z,34.40
2022-09-15T17:50:46.475Z,37.90
2022-09-15T17:55:56.265Z,35.70
2022-09-15T18:01:02.117Z,36.65
2022-09-15T18:06:11.884Z,35.63
2022-09-15T18:11:17.011Z,34.63
2022-09-15T18:16:22.363Z,29.02
2022-09-15T18:26:35.289Z,31.48
2022-09-15T18:36:44.862Z,31.27
2022-09-15T18:41:51.329Z,31.38
2022-09-15T18:46:56.571Z,31.77
2022-09-15T18:52:03.885Z,30.13
2022-09-15T18:57:09.191Z,29.45
2022-09-15T19:02:15.830Z,28.45
2022-09-15T19:07:23.099Z,29.02
2022-09-15T19:12:30.159Z,29.02
2022-09-15T19:17:35.283Z,29.08
2022-09-15T19:22:41.377Z,29.58
2022-09-15T19:27:46.605Z,27.00
2022-09-15T19:32:51.716Z,26.25
2022-09-15T19:43:02.279Z,26.00
2022-09-15T19:48:07.620Z,23.48
2022-09-15T19:58:17.017Z,23.48
2022-09-15T20:03:22.973Z,22.08
2022-09-15T20:08:28.274Z,21.90
2022-09-15T20:18:42.631Z,21.33
2022-09-15T20:23:48.685Z,23.35
2022-09-15T20:28:54.830Z,22.60
2022-09-15T20:33:59.836Z,21.70
2022-09-15T20:39:06.986Z,23.08
2022-09-15T20:44:12.316Z,23.30
2022-09-15T20:49:17.519Z,22.40
2022-09-15T20:54:22.584Z,21.23
2022-09-15T20:59:27.648Z,22.67
2022-09-15T21:04:33.694Z,21.45
2022-09-15T21:09:38.691Z,23.17
2022-09-15T21:14:44.339Z,21.33
2022-09-15T21:19:49.669Z,20.63
2022-09-15T21:29:59.812Z,20.25
2022-09-15T21:35:04.890Z,19.17
2022-09-15T21:40:11.142Z,20.70
2022-09-15T21:45:16.573Z,19.70
2022-09-15T21:55:27.165Z,18.88
2022-09-15T22:00:32.373Z,19.27
2022-09-15T22:05:37.601Z,19.13
2022-09-15T22:11:01.604Z,19.25
2022-09-15T22:16:13.319Z,17.60
2022-09-15T22:21:24.522Z,17.70
2022-09-15T22:26:32.335Z,16.48
2022-09-15T22:31:38.484Z,16.55
2022-09-15T22:36:43.901Z,19.30
2022-09-15T22:46:54.244Z,18.65
2022-09-15T22:51:59.882Z,17.70
2022-09-15T22:57:05.664Z,17.92
2022-09-15T23:02:11.385Z,19.27
2022-09-15T23:07:17.249Z,18.52
2022-09-15T23:12:22.515Z,19.30
2022-09-15T23:17:28.811Z,20.38
2022-09-15T23:22:34.459Z,20.05
2022-09-15T23:27:39.755Z,18.92
2022-09-15T23:32:45.068Z,16.27
2022-09-15T23:37:54.494Z,20.83
2022-09-15T23:42:59.805Z,19.23
2022-09-15T23:48:09.717Z,17.33
2022-09-15T23:53:15.559Z,18.10
2022-09-15T23:58:20.847Z,18.20
